Time;durP1;ratioP1;P1;durP2;ratioP2;P2;SDS_P1;SDS_P2;PMS_P1;PMS_P2;Temp;Humidity;BMP_temperature;BMP_pressure;BME280_temperature;BME280_humidity;BME280_pressure;Samples;Min_cycle;Max_cycle;Signal;HPM_P1;HPM_P2
2021/01/28 00:00:38;;;;;;;;;;;;;;;-144.34;100.00;60189.88;4951743;28;21461;-89
2021/01/28 00:03:04;;;;;;;;;;;;;;;-144.34;100.00;60189.88;4965016;28;19928;-89
2021/01/28 00:05:30;;;;;;;;;;;;;;;-144.34;100.00;60189.88;4983314;28;19922;-90
2021/01/28 00:07:56;;;;;;;;;;;;;;;-144.34;100.00;60189.88;4967753;28;19917;-89
2021/01/28 00:10:22;;;;;;;;;;;;;;;-144.34;100.00;60189.88;4965737;28;19925;-89
2021/01/28 00:12:47;;;;;;;;;;;;;;;-144.34;100.00;60189.88;4967856;28;20433;-90
2021/01/28 00:15:14;;;;;;;;;;;;;;;-144.34;100.00;60189.88;4951999;28;19925;-89
2021/01/28 00:17:39;;;;;;;;;;;;;;;-144.34;100.00;60189.88;4966966;28;19980;-89
2021/01/28 00:20:08;;;;;;;;;;;;;;;-144.34;100.00;60189.88;4950973;28;19922;-89
2021/01/28 00:22:34;;;;;;;;;;;;;;;-144.34;100.00;60189.88;4967529;28;19918;-89
2021/01/28 00:24:59;;;;;;;;;;;;;;;-144.34;100.00;60189.88;4968010;28;20373;-90
2021/01/28 00:27:24;;;;;;;;;;;;;;;-144.34;100.00;60189.88;4950330;28;20397;-89
2021/01/28 00:29:50;;;;;;;;;;;;;;;-144.34;100.00;60189.88;4967416;28;19914;-88
2021/01/28 00:32:15;;;;;;;;;;;;;;;-144.34;100.00;60189.88;4951093;28;19918;-89
2021/01/28 00:34:40;;;;;;;;;;;;;;;-144.34;100.00;60189.88;4951523;28;20648;-89
2021/01/28 00:37:06;;;;;;;;;;;;;;;-144.34;100.00;60189.88;4966691;28;20004;-89
2021/01/28 00:39:31;;;;;;;;;;;;;;;-144.34;100.00;60189.88;4950860;28;19928;-90
2021/01/28 00:41:57;;;;;;;;;;;;;;;-144.34;100.00;60189.88;4967003;28;20274;-89
2021/01/28 00:44:22;;;;;;;;;;;;;;;-144.34;100.00;60189.88;4967276;28;20771;-89
2021/01/28 00:46:47;;;;;;;;;;;;;;;-144.34;100.00;60189.88;4966587;28;19918;-88
2021/01/28 00:49:13;;;;;;;;;;;;;;;-144.34;100.00;60189.88;4966803;28;20395;-89
2021/01/28 00:51:38;;;;;;;;;;;;;;;-144.34;100.00;60189.88;4950172;28;20571;-89
2021/01/28 00:54:04;;;;;;;;;;;;;;;-144.34;100.00;60189.88;4966817;28;19922;-89
2021/01/28 00:56:29;;;;;;;;;;;;;;;-144.34;100.00;60189.88;4951430;28;19949;-89
2021/01/28 00:58:54;;;;;;;;;;;;;;;-144.34;100.00;60189.88;4967183;28;20436;-89
2021/01/28 01:01:20;;;;;;;;;;;;;;;-144.34;100.00;60189.88;4950704;28;20150;-89
2021/01/28 01:03:45;;;;;;;;;;;;;;;-144.34;100.00;60189.88;4950573;28;19917;-89
2021/01/28 01:06:11;;;;;;;;;;;;;;;-144.34;100.00;60189.88;4966511;28;19939;-89
2021/01/28 01:08:36;;;;;;;;;;;;;;;-144.34;100.00;60189.88;4949710;28;19957;-89
2021/01/28 01:11:03;;;;;;;;;;;;;;;-144.34;100.00;60189.88;4966865;28;19917;-89
2021/01/28 01:13:30;;;;;;;;;;;;;;;-144.34;100.00;60189.88;4967122;28;20011;-90
2021/01/28 01:15:56;;;;;;;;;;;;;;;-144.34;100.00;60189.88;4966068;28;19922;-89
2021/01/28 01:18:23;;;;;;;;;;;;;;;-144.34;100.00;60189.88;4949466;28;19925;-89
2021/01/28 01:20:48;;;;;;;;;;;;;;;-144.34;100.00;60189.88;4949470;28;19924;-89
2021/01/28 01:23:14;;;;;;;;;;;;;;;-144.34;100.00;60189.88;4966887;28;19922;-89
2021/01/28 01:25:39;;;;;;;;;;;;;;;-144.34;100.00;60189.88;4950350;28;19922;-89
2021/01/28 01:28:05;;;;;;;;;;;;;;;-144.34;100.00;60189.88;4966190;28;19922;-90
2021/01/28 01:30:30;;;;;;;;;;;;;;;-144.34;100.00;60189.88;4966659;28;19926;-89
2021/01/28 01:32:55;;;;;;;;;;;;;;;-144.34;100.00;60189.88;4950364;28;19921;-90
2021/01/28 01:35:22;;;;;;;;;;;;;;;-144.34;100.00;60189.88;4949911;28;19964;-89
2021/01/28 01:37:48;;;;;;;;;;;;;;;-144.34;100.00;60189.88;4966419;28;20313;-89
2021/01/28 01:40:16;;;;;;;;;;;;;;;-144.34;100.00;60189.88;4950176;28;19972;-89
2021/01/28 01:42:44;;;;;;;;;;;;;;;-144.34;100.00;60189.88;4965720;28;19926;-91
2021/01/28 01:45:10;;;;;;;;;;;;;;;-144.34;100.00;60189.88;4965837;28;19917;-90
2021/01/28 01:47:35;;;;;;;;;;;;;;;-144.34;100.00;60189.88;4966549;28;19923;-89
2021/01/28 01:50:03;;;;;;;;;;;;;;;-144.34;100.00;60189.88;4980936;28;20297;-90
2021/01/28 01:52:30;;;;;;;;;;;;;;;-144.34;100.00;60189.88;4966659;28;19971;-88
2021/01/28 01:54:56;;;;;;;;;;;;;;;-144.34;100.00;60189.88;4966400;28;20436;-89
2021/01/28 01:57:26;;;;;;;;;;;;;;;-144.34;100.00;60189.88;4965409;28;19922;-90
2021/01/28 02:00:03;;;;;;;;;;;;;;;-144.34;100.00;60189.88;4948803;28;19921;-91
2021/01/28 02:02:29;;;;;;;;;;;;;;;-144.34;100.00;60189.88;4966162;28;20447;-91
2021/01/28 02:04:57;;;;;;;;;;;;;;;-144.34;100.00;60189.88;4950462;28;19921;-90
2021/01/28 02:07:24;;;;;;;;;;;;;;;-144.34;100.00;60189.88;4965580;28;20433;-90
2021/01/28 02:09:50;;;;;;;;;;;;;;;-144.34;100.00;60189.88;4966520;28;19924;-90
2021/01/28 02:12:16;;;;;;;;;;;;;;;-144.34;100.00;60189.88;4966351;28;21016;-90
2021/01/28 02:14:41;;;;;;;;;;;;;;;-144.34;100.00;60189.88;4966433;28;20338;-90
2021/01/28 02:17:08;;;;;;;;;;;;;;;-144.34;100.00;60189.88;4969015;28;19926;-90
2021/01/28 02:19:54;;;;;;;;;;;;;;;-144.34;100.00;60189.88;4950282;28;19936;-90
2021/01/28 02:22:38;;;;;;;;;;;;;;;-144.34;100.00;60189.88;4976487;28;19917;-90
2021/01/28 02:25:14;;;;;;;;;;;;;;;-144.34;100.00;60189.88;4966179;28;20426;-90
2021/01/28 02:27:41;;;;;;;;;;;;;;;-144.34;100.00;60189.88;4966817;28;19917;-90
2021/01/28 02:30:06;;;;;;;;;;;;;;;-144.34;100.00;60189.88;4950501;28;19926;-90
2021/01/28 02:32:32;;;;;;;;;;;;;;;-144.34;100.00;60189.88;4965670;28;20348;-87
2021/01/28 02:34:57;;;;;;;;;;;;;;;-144.34;100.00;60189.88;4965481;28;19917;-91
2021/01/28 02:37:22;;;;;;;;;;;;;;;-144.34;100.00;60189.88;4951120;28;19972;-90
2021/01/28 02:39:48;;;;;;;;;;;;;;;-144.34;100.00;60189.88;4950738;28;19918;-88
2021/01/28 02:42:13;;;;;;;;;;;;;;;-144.34;100.00;60189.88;4950266;28;20304;-90
2021/01/28 02:44:39;;;;;;;;;;;;;;;-144.34;100.00;60189.88;4969212;28;19921;-89
2021/01/28 02:47:04;;;;;;;;;;;;;;;-144.34;100.00;60189.88;4982545;28;19984;-90
2021/01/28 02:49:29;;;;;;;;;;;;;;;-144.34;100.00;60189.88;4966175;28;20366;-90
2021/01/28 02:51:55;;;;;;;;;;;;;;;-144.34;100.00;60189.88;4966026;28;19918;-90
2021/01/28 02:54:20;;;;;;;;;;;;;;;-144.34;100.00;60189.88;4965379;28;19937;-90
2021/01/28 02:56:46;;;;;;;;;;;;;;;-144.34;100.00;60189.88;4965921;28;19917;-90
2021/01/28 02:59:11;;;;;;;;;;;;;;;-144.34;100.00;60189.88;4968489;28;20081;-90
2021/01/28 03:01:37;;;;;;;;;;;;;;;-144.34;100.00;60189.88;4969196;28;19941;-91
2021/01/28 03:04:02;;;;;;;;;;;;;;;-144.34;100.00;60189.88;4969346;28;20023;-91
2021/01/28 03:06:28;;;;;;;;;;;;;;;-144.34;100.00;60189.88;4953331;28;19924;-91
2021/01/28 03:08:53;;;;;;;;;;;;;;;-144.34;100.00;60189.88;4969308;28;19918;-90
2021/01/28 03:11:19;;;;;;;;;;;;;;;-144.34;100.00;60189.88;4970196;28;20016;-90
2021/01/28 03:13:45;;;;;;;;;;;;;;;-144.34;100.00;60189.88;4970624;28;19925;-90
2021/01/28 03:16:10;;;;;;;;;;;;;;;-144.34;100.00;60189.88;4954985;28;19945;-90
2021/01/28 03:18:36;;;;;;;;;;;;;;;-144.34;100.00;60189.88;4971004;28;19922;-90
2021/01/28 03:21:01;;;;;;;;;;;;;;;-144.34;100.00;60189.88;4987348;28;19917;-90
2021/01/28 03:23:26;;;;;;;;;;;;;;;-144.34;100.00;60189.88;4980237;28;19918;-91
2021/01/28 03:25:52;;;;;;;;;;;;;;;-144.34;100.00;60189.88;4970156;28;20866;-91
2021/01/28 03:28:18;;;;;;;;;;;;;;;-144.34;100.00;60189.88;4987406;28;19922;-89
2021/01/28 03:30:44;;;;;;;;;;;;;;;-144.34;100.00;60189.88;4970405;28;19961;-89
2021/01/28 03:33:11;;;;;;;;;;;;;;;-144.34;100.00;60189.88;4987024;28;19922;-90
2021/01/28 03:35:37;;;;;;;;;;;;;;;-144.34;100.00;60189.88;4985301;28;20005;-90
2021/01/28 03:38:03;;;;;;;;;;;;;;;-144.34;100.00;60189.88;4968426;28;20072;-90
2021/01/28 03:40:28;;;;;;;;;;;;;;;-144.34;100.00;60189.88;4984983;28;19918;-89
2021/01/28 03:42:54;;;;;;;;;;;;;;;-144.34;100.00;60189.88;4985368;28;20090;-90
2021/01/28 03:45:19;;;;;;;;;;;;;;;-144.34;100.00;60189.88;4969049;28;20024;-90
2021/01/28 03:47:45;;;;;;;;;;;;;;;-144.34;100.00;60189.88;4984209;28;20008;-90
2021/01/28 03:50:11;;;;;;;;;;;;;;;-144.34;100.00;60189.88;4967986;28;19921;-89
2021/01/28 03:52:37;;;;;;;;;;;;;;;-144.34;100.00;60189.88;4967362;28;19921;-90
2021/01/28 03:55:03;;;;;;;;;;;;;;;-144.34;100.00;60189.88;4968864;28;20396;-90
2021/01/28 03:57:28;;;;;;;;;;;;;;;-144.34;100.00;60189.88;4985046;28;19928;-90
2021/01/28 03:59:53;;;;;;;;;;;;;;;-144.34;100.00;60189.88;4985272;28;20297;-90
2021/01/28 04:02:19;;;;;;;;;;;;;;;-144.34;100.00;60189.88;4984870;28;19973;-89
2021/01/28 04:04:44;;;;;;;;;;;;;;;-144.34;100.00;60189.88;4984767;28;20306;-89
2021/01/28 04:07:09;;;;;;;;;;;;;;;-144.34;100.00;60189.88;4951993;28;19917;-90
2021/01/28 04:09:35;;;;;;;;;;;;;;;-144.34;100.00;60189.88;4984812;28;20011;-90
2021/01/28 04:12:00;;;;;;;;;;;;;;;-144.34;100.00;60189.88;4983806;28;19961;-89
2021/01/28 04:14:25;;;;;;;;;;;;;;;-144.34;100.00;60189.88;4967961;28;19969;-88
2021/01/28 04:16:51;;;;;;;;;;;;;;;-144.34;100.00;60189.88;4983987;28;20010;-89
2021/01/28 04:19:16;;;;;;;;;;;;;;;-144.34;100.00;60189.88;4968380;28;19928;-90
2021/01/28 04:21:41;;;;;;;;;;;;;;;-144.34;100.00;60189.88;4967050;28;19918;-90
2021/01/28 04:24:07;;;;;;;;;;;;;;;-144.34;100.00;60189.88;4983616;28;19929;-90
2021/01/28 04:26:34;;;;;;;;;;;;;;;-144.34;100.00;60189.88;4969069;28;19914;-90
2021/01/28 04:29:00;;;;;;;;;;;;;;;-144.34;100.00;60189.88;4969395;28;19918;-90
2021/01/28 04:31:25;;;;;;;;;;;;;;;-144.34;100.00;60189.88;4968383;28;20639;-90
2021/01/28 04:33:50;;;;;;;;;;;;;;;-144.34;100.00;60189.88;4968202;28;20027;-89
2021/01/28 04:36:16;;;;;;;;;;;;;;;-144.34;100.00;60189.88;4984099;28;19937;-90
2021/01/28 04:38:41;;;;;;;;;;;;;;;-144.34;100.00;60189.88;4983598;28;20206;-90
2021/01/28 04:41:10;;;;;;;;;;;;;;;-144.34;100.00;60189.88;4983250;28;20005;-89
2021/01/28 04:43:35;;;;;;;;;;;;;;;-144.34;100.00;60189.88;4984248;28;19941;-88
2021/01/28 04:46:05;;;;;;;;;;;;;;;-144.34;100.00;60189.88;4967108;28;19930;-89
2021/01/28 04:48:31;;;;;;;;;;;;;;;-144.34;100.00;60189.88;4968043;28;19917;-90
2021/01/28 04:50:56;;;;;;;;;;;;;;;-144.34;100.00;60189.88;4967959;28;19921;-90
2021/01/28 04:53:31;;;;;;;;;;;;;;;-144.34;100.00;60189.88;4967639;28;19921;-89
2021/01/28 04:55:57;;;;;;;;;;;;;;;-144.34;100.00;60189.88;4967337;28;20463;-90
2021/01/28 04:58:22;;;;;;;;;;;;;;;-144.34;100.00;60189.88;4983647;28;19922;-89
2021/01/28 05:00:47;;;;;;;;;;;;;;;-144.34;100.00;60189.88;4967149;28;20008;-90
2021/01/28 05:03:20;;;;;;;;;;;;;;;-144.34;100.00;60189.88;4982149;28;19981;-90
2021/01/28 05:05:46;;;;;;;;;;;;;;;-144.34;100.00;60189.88;4972018;28;19918;-91
2021/01/28 05:08:12;;;;;;;;;;;;;;;-144.34;100.00;60189.88;4987893;28;19913;-90
2021/01/28 05:10:45;;;;;;;;;;;;;;;-144.34;100.00;60189.88;4976843;28;20373;-89
2021/01/28 05:13:12;;;;;;;;;;;;;;;-144.34;100.00;60189.88;4970398;28;20286;-90
2021/01/28 05:15:41;;;;;;;;;;;;;;;-144.34;100.00;60189.88;4976116;28;20404;-89
2021/01/28 05:18:09;;;;;;;;;;;;;;;-144.34;100.00;60189.88;4976408;28;20302;-90
2021/01/28 05:20:35;;;;;;;;;;;;;;;-144.34;100.00;60189.88;4975700;28;19914;-90
2021/01/28 05:23:10;;;;;;;;;;;;;;;-144.34;100.00;60189.88;4959006;28;20330;-90
2021/01/28 05:25:41;;;;;;;;;;;;;;;-144.34;100.00;60189.88;4976206;28;19914;-89
2021/01/28 05:28:28;;;;;;;;;;;;;;;-144.34;100.00;60189.88;4972718;28;20389;-90
2021/01/28 05:30:53;;;;;;;;;;;;;;;-144.34;100.00;60189.88;4959611;28;19914;-89
2021/01/28 05:33:37;;;;;;;;;;;;;;;-144.34;100.00;60189.88;4959744;28;19917;-90
2021/01/28 05:36:19;;;;;;;;;;;;;;;-144.34;100.00;60189.88;4975932;28;19920;-90
2021/01/28 05:38:50;;;;;;;;;;;;;;;-144.34;100.00;60189.88;4976349;28;19918;-89
2021/01/28 05:41:42;;;;;;;;;;;;;;;-144.34;100.00;60189.88;4977905;28;19914;-89
2021/01/28 05:44:16;;;;;;;;;;;;;;;-144.34;100.00;60189.88;4974853;28;20404;-90
2021/01/28 05:47:07;;;;;;;;;;;;;;;-144.34;100.00;60189.88;4977593;28;19918;-89
2021/01/28 05:49:33;;;;;;;;;;;;;;;-144.34;100.00;60189.88;4969978;28;20009;-89
2021/01/28 05:52:20;;;;;;;;;;;;;;;-144.34;100.00;60189.88;4976473;28;19921;-90
2021/01/28 05:55:00;;;;;;;;;;;;;;;-144.34;100.00;60189.88;4976331;28;19920;-90
2021/01/28 05:57:31;;;;;;;;;;;;;;;-144.34;100.00;60189.88;4952669;28;19961;-89
2021/01/28 06:00:15;;;;;;;;;;;;;;;-144.34;100.00;60189.88;4957265;28;19944;-89
2021/01/28 06:02:52;;;;;;;;;;;;;;;-144.34;100.00;60189.88;4956706;28;20016;-89
2021/01/28 06:05:27;;;;;;;;;;;;;;;-144.34;100.00;60189.88;4971821;28;19921;-89
2021/01/28 06:08:11;;;;;;;;;;;;;;;-144.34;100.00;60189.88;4958120;28;19914;-89
2021/01/28 06:10:49;;;;;;;;;;;;;;;-144.34;100.00;60189.88;4958811;28;19914;-90
2021/01/28 06:13:14;;;;;;;;;;;;;;;-144.34;100.00;60189.88;4966643;28;19972;-89
2021/01/28 06:16:07;;;;;;;;;;;;;;;-144.34;100.00;60189.88;4970720;28;21240;-89
2021/01/28 06:18:38;;;;;;;;;;;;;;;-144.34;100.00;60189.88;4989078;28;20368;-89
2021/01/28 06:21:13;;;;;;;;;;;;;;;-144.34;100.00;60189.88;4975867;28;19918;-88
2021/01/28 06:23:52;;;;;;;;;;;;;;;-144.34;100.00;60189.88;4975083;28;19961;-89
2021/01/28 06:26:23;;;;;;;;;;;;;;;-144.34;100.00;60189.88;4959899;28;19921;-89
2021/01/28 06:29:14;;;;;;;;;;;;;;;-144.34;100.00;60189.88;4973632;28;19914;-89
2021/01/28 06:31:39;;;;;;;;;;;;;;;-144.34;100.00;60189.88;4972779;28;20024;-89
2021/01/28 06:34:07;;;;;;;;;;;;;;;-144.34;100.00;60189.88;4991916;28;19964;-89
2021/01/28 06:36:42;;;;;;;;;;;;;;;-144.34;100.00;60189.88;4973667;28;19925;-89
2021/01/28 06:39:16;;;;;;;;;;;;;;;-144.34;100.00;60189.88;4962102;28;19918;-89
2021/01/28 06:41:45;;;;;;;;;;;;;;;-144.34;100.00;60189.88;4972451;28;20123;-90
2021/01/28 06:44:14;;;;;;;;;;;;;;;-144.34;100.00;60189.88;4956288;28;19928;-89
2021/01/28 06:46:58;;;;;;;;;;;;;;;-144.34;100.00;60189.88;4992484;28;19922;-89
2021/01/28 06:49:30;;;;;;;;;;;;;;;-144.34;100.00;60189.88;4991289;28;19971;-89
2021/01/28 06:52:04;;;;;;;;;;;;;;;-144.34;100.00;60189.88;4958269;28;19957;-89
2021/01/28 06:54:39;;;;;;;;;;;;;;;-144.34;100.00;60189.88;4962754;28;19918;-89
2021/01/28 06:57:07;;;;;;;;;;;;;;;-144.34;100.00;60189.88;4977126;28;20012;-89
2021/01/28 06:59:34;;;;;;;;;;;;;;;-144.34;100.00;60189.88;4974768;28;19914;-89
2021/01/28 07:02:09;;;;;;;;;;;;;;;-144.34;100.00;60189.88;4979645;28;20811;-93
2021/01/28 07:04:37;;;;;;;;;;;;;;;-144.34;100.00;60189.88;4959480;28;19964;-91
2021/01/28 07:07:21;;;;;;;;;;;;;;;-144.34;100.00;60189.88;4960740;28;20034;-89
2021/01/28 07:10:04;;;;;;;;;;;;;;;-144.34;100.00;60189.88;4975881;28;19918;-90
2021/01/28 07:12:32;;;;;;;;;;;;;;;-144.34;100.00;60189.88;4959969;28;20433;-90
2021/01/28 07:15:03;;;;;;;;;;;;;;;-144.34;100.00;60189.88;4980979;28;19964;-90
2021/01/28 07:17:49;;;;;;;;;;;;;;;-144.34;100.00;60189.88;4963649;28;19929;-90
2021/01/28 07:20:32;;;;;;;;;;;;;;;-144.34;100.00;60189.88;4962695;28;19925;-90
2021/01/28 07:23:19;;;;;;;;;;;;;;;-144.34;100.00;60189.88;4955760;28;19918;-90
2021/01/28 07:25:45;;;;;;;;;;;;;;;-144.34;100.00;60189.88;4954938;28;19926;-90
2021/01/28 07:28:14;;;;;;;;;;;;;;;-144.34;100.00;60189.88;4959626;28;19918;-89
2021/01/28 07:30:44;;;;;;;;;;;;;;;-144.34;100.00;60189.88;4959724;28;20289;-89
2021/01/28 07:33:22;;;;;;;;;;;;;;;-144.34;100.00;60189.88;4963733;28;19914;-89
2021/01/28 07:35:48;;;;;;;;;;;;;;;-144.34;100.00;60189.88;4974859;28;19914;-90
2021/01/28 07:38:37;;;;;;;;;;;;;;;-144.34;100.00;60189.88;4942880;28;19918;-89
2021/01/28 07:41:04;;;;;;;;;;;;;;;-144.34;100.00;60189.88;4949061;28;19917;-90
2021/01/28 07:43:29;;;;;;;;;;;;;;;-144.34;100.00;60189.88;4942015;28;19915;-90
2021/01/28 07:46:16;;;;;;;;;;;;;;;-144.34;100.00;60189.88;4959423;28;20294;-90
2021/01/28 07:48:46;;;;;;;;;;;;;;;-144.34;100.00;60189.88;4975906;28;20714;-91
2021/01/28 07:51:32;;;;;;;;;;;;;;;-144.34;100.00;60189.88;4976371;28;19921;-89
2021/01/28 07:54:01;;;;;;;;;;;;;;;-144.34;100.00;60189.88;4978179;28;19921;-90
2021/01/28 07:56:35;;;;;;;;;;;;;;;-144.34;100.00;60189.88;4978070;28;19921;-89
2021/01/28 07:59:13;;;;;;;;;;;;;;;-144.34;100.00;60189.88;4977030;28;19922;-89
2021/01/28 08:01:42;;;;;;;;;;;;;;;-144.34;100.00;60189.88;4977846;28;19918;-90
2021/01/28 08:04:15;;;;;;;;;;;;;;;-144.34;100.00;60189.88;4977625;28;19914;-90
2021/01/28 08:06:41;;;;;;;;;;;;;;;-144.34;100.00;60189.88;4977874;28;19976;-89
2021/01/28 08:09:08;;;;;;;;;;;;;;;-144.34;100.00;60189.88;4961697;28;19984;-89
2021/01/28 08:11:33;;;;;;;;;;;;;;;-144.34;100.00;60189.88;4961887;28;19914;-89
2021/01/28 08:13:58;;;;;;;;;;;;;;;-144.34;100.00;60189.88;4961832;28;19914;-90
2021/01/28 08:16:24;;;;;;;;;;;;;;;-144.34;100.00;60189.88;4961569;28;19913;-90
2021/01/28 08:19:00;;;;;;;;;;;;;;;-144.34;100.00;60189.88;4961839;28;19918;-90
2021/01/28 08:21:29;;;;;;;;;;;;;;;-144.34;100.00;60189.88;4961878;28;20462;-90
2021/01/28 08:23:55;;;;;;;;;;;;;;;-144.34;100.00;60189.88;4961498;28;19925;-89
2021/01/28 08:26:33;;;;;;;;;;;;;;;-144.34;100.00;60189.88;4961838;28;19917;-89
2021/01/28 08:29:07;;;;;;;;;;;;;;;-144.34;100.00;60189.88;4961551;28;19917;-89
2021/01/28 08:31:52;;;;;;;;;;;;;;;-144.34;100.00;60189.88;4961076;28;19914;-90
2021/01/28 08:34:25;;;;;;;;;;;;;;;-144.34;100.00;60189.88;4961245;28;19978;-89
2021/01/28 08:36:50;;;;;;;;;;;;;;;-144.34;100.00;60189.88;4961125;28;20137;-89
2021/01/28 08:39:33;;;;;;;;;;;;;;;-144.34;100.00;60189.88;4977411;28;19925;-89
2021/01/28 08:41:59;;;;;;;;;;;;;;;-144.34;100.00;60189.88;4962037;28;19976;-93
2021/01/28 08:44:25;;;;;;;;;;;;;;;-144.34;100.00;60189.88;4977895;28;20320;-91
2021/01/28 08:46:56;;;;;;;;;;;;;;;-144.34;100.00;60189.88;4961029;28;20000;-90
2021/01/28 08:49:21;;;;;;;;;;;;;;;-144.34;100.00;60189.88;4960117;28;19950;-90
2021/01/28 08:51:52;;;;;;;;;;;;;;;-144.34;100.00;60189.88;4961495;28;19913;-90
2021/01/28 08:54:23;;;;;;;;;;;;;;;-144.34;100.00;60189.88;4961257;28;19960;-90
2021/01/28 08:56:49;;;;;;;;;;;;;;;-144.34;100.00;60189.88;4961107;28;19914;-90
2021/01/28 08:59:16;;;;;;;;;;;;;;;-144.34;100.00;60189.88;4957533;28;19925;-89
2021/01/28 09:02:09;;;;;;;;;;;;;;;-144.34;100.00;60189.88;4957848;28;19950;-90
2021/01/28 09:04:36;;;;;;;;;;;;;;;-144.34;100.00;60189.88;4957756;28;19914;-90
2021/01/28 09:07:01;;;;;;;;;;;;;;;-144.34;100.00;60189.88;4971075;28;19925;-90
2021/01/28 09:09:28;;;;;;;;;;;;;;;-144.34;100.00;60189.88;4960897;28;19925;-90
2021/01/28 09:12:15;;;;;;;;;;;;;;;-144.34;100.00;60189.88;4961581;28;20289;-90
2021/01/28 09:14:40;;;;;;;;;;;;;;;-144.34;100.00;60189.88;4977005;28;19913;-89
2021/01/28 09:17:43;;;;;;;;;;;;;;;-144.34;100.00;60189.88;4966517;28;19922;-89
2021/01/28 09:20:09;;;;;;;;;;;;;;;-144.34;100.00;60189.88;4996877;28;19918;-90
2021/01/28 09:22:39;;;;;;;;;;;;;;;-144.34;100.00;60189.88;4980312;28;20655;-90
2021/01/28 09:25:23;;;;;;;;;;;;;;;-144.34;100.00;60189.88;4979075;28;19913;-90
2021/01/28 09:28:05;;;;;;;;;;;;;;;-144.34;100.00;60189.88;4980270;28;19913;-90
2021/01/28 09:30:35;;;;;;;;;;;;;;;-144.34;100.00;60189.88;4980362;28;19917;-90
2021/01/28 09:33:00;;;;;;;;;;;;;;;-144.34;100.00;60189.88;4980335;28;19913;-91
2021/01/28 09:35:26;;;;;;;;;;;;;;;-144.34;100.00;60189.88;4992964;28;19920;-89
2021/01/28 09:38:03;;;;;;;;;;;;;;;-144.34;100.00;60189.88;4980031;28;19944;-91
2021/01/28 09:40:35;;;;;;;;;;;;;;;-144.34;100.00;60189.88;4996389;28;19989;-91
2021/01/28 09:43:26;;;;;;;;;;;;;;;-144.34;100.00;60189.88;4980673;28;19917;-90
2021/01/28 09:46:04;;;;;;;;;;;;;;;-144.34;100.00;60189.88;4996319;28;20605;-89
2021/01/28 09:48:35;;;;;;;;;;;;;;;-144.34;100.00;60189.88;4996222;28;20346;-89
2021/01/28 09:51:07;;;;;;;;;;;;;;;-144.34;100.00;60189.88;4979962;28;19917;-89
2021/01/28 09:53:39;;;;;;;;;;;;;;;-144.34;100.00;60189.88;4980043;28;20012;-88
2021/01/28 09:56:11;;;;;;;;;;;;;;;-144.34;100.00;60189.88;4995730;28;19914;-89
2021/01/28 09:58:37;;;;;;;;;;;;;;;-144.34;100.00;60189.88;4979845;28;19925;-89
2021/01/28 10:01:04;;;;;;;;;;;;;;;-144.34;100.00;60189.88;4980173;28;20292;-89
2021/01/28 10:03:29;;;;;;;;;;;;;;;-144.34;100.00;60189.88;4980121;28;19914;-89
2021/01/28 13:24:42;;;;;;;;;;;;;;;-144.34;100.00;60189.88;5050375;23;20016;-93
2021/01/28 13:27:40;;;;;;;;;;;;;;;;;;;;;
2021/01/28 13:30:18;;;;;;;;;;;;;;;-144.34;100.00;60189.88;4974310;28;19922;-93
2021/01/28 13:33:01;;;;;;;;;;;;;;;-144.34;100.00;60189.88;4969056;28;19948;-92
2021/01/28 13:35:40;;;;;;;;;;;;;;;;;;;;;
2021/01/28 13:38:17;;;;;;;;;;;;;;;-144.34;100.00;60189.88;4980909;28;19921;-93
2021/01/28 13:40:47;;;;;;;;;;;;;;;-144.34;100.00;60189.88;4964533;28;19921;-93
2021/01/28 13:46:23;;;;;;;;;;;;;;;-144.34;100.00;60189.88;4946173;28;20016;-93
2021/01/28 13:49:16;;;;;;;;;;;;;;;-144.34;100.00;60189.88;4975194;28;20294;-93
2021/01/28 13:51:53;;;;;;;;;;;;;;;-144.34;100.00;60189.88;4988809;28;19954;-92
2021/01/28 13:54:41;;;;;;;;;;;;;;;-144.34;100.00;60189.88;4970346;28;19972;-94
2021/01/28 13:57:36;;;;;;;;;;;;;;;;;;;;;
2021/01/28 14:00:38;;;;;;;;;;;;;;;;;;;;;
2021/01/28 14:03:25;;;;;;;;;;;;;;;-144.34;100.00;60189.88;4989321;28;19927;-93
2021/01/28 14:05:53;;;;;;;;;;;;;;;-144.34;100.00;60189.88;4965469;28;19922;-92
2021/01/28 14:08:18;;;;;;;;;;;;;;;-144.34;100.00;60189.88;4972546;28;19922;-93
2021/01/28 14:10:44;;;;;;;;;;;;;;;-144.34;100.00;60189.88;4960411;28;19922;-92
2021/01/28 14:13:09;;;;;;;;;;;;;;;-144.34;100.00;60189.88;4972873;28;20263;-92
2021/01/28 14:15:34;;;;;;;;;;;;;;;-144.34;100.00;60189.88;4970863;28;19948;-91
2021/01/28 14:18:00;;;;;;;;;;;;;;;-144.34;100.00;60189.88;4964067;28;19922;-93
2021/01/28 14:20:25;;;;;;;;;;;;;;;-144.34;100.00;60189.88;4960858;28;19948;-92
2021/01/28 14:22:51;;;;;;;;;;;;;;;-144.34;100.00;60189.88;4971737;28;19958;-93
2021/01/28 14:25:17;;;;;;;;;;;;;;;-144.34;100.00;60189.88;4960725;28;19921;-91
2021/01/28 14:27:43;;;;;;;;;;;;;;;-144.34;100.00;60189.88;4960518;28;19929;-93
2021/01/28 14:30:09;;;;;;;;;;;;;;;-144.34;100.00;60189.88;4961597;28;19927;-92
2021/01/28 14:32:35;;;;;;;;;;;;;;;-144.34;100.00;60189.88;4973805;28;20082;-93
2021/01/28 14:35:02;;;;;;;;;;;;;;;-144.34;100.00;60189.88;4976164;28;19921;-93
2021/01/28 14:37:27;;;;;;;;;;;;;;;-144.34;100.00;60189.88;4962850;28;19937;-94
2021/01/28 14:39:53;;;;;;;;;;;;;;;-144.34;100.00;60189.88;4958078;28;20085;-93
2021/01/28 14:42:22;;;;;;;;;;;;;;;-144.34;100.00;60189.88;4954469;28;19944;-93
2021/01/28 14:44:47;;;;;;;;;;;;;;;-144.34;100.00;60189.88;4974631;28;19925;-92
2021/01/28 14:47:13;;;;;;;;;;;;;;;-144.34;100.00;60189.88;4969187;28;19993;-93
2021/01/28 14:49:38;;;;;;;;;;;;;;;-144.34;100.00;60189.88;4958279;28;19921;-93
2021/01/28 14:52:03;;;;;;;;;;;;;;;-144.34;100.00;60189.88;4957913;28;19928;-93
2021/01/28 14:54:29;;;;;;;;;;;;;;;-144.34;100.00;60189.88;4973325;28;20180;-92
2021/01/28 14:56:54;;;;;;;;;;;;;;;-144.34;100.00;60189.88;4962052;28;19929;-93
2021/01/28 14:59:20;;;;;;;;;;;;;;;-144.34;100.00;60189.88;4960439;28;19929;-94
2021/01/28 15:01:45;;;;;;;;;;;;;;;-144.34;100.00;60189.88;4962326;28;19929;-92
2021/01/28 15:04:10;;;;;;;;;;;;;;;-144.34;100.00;60189.88;4974859;28;20274;-93
2021/01/28 15:06:36;;;;;;;;;;;;;;;-144.34;100.00;60189.88;4958743;28;19921;-92
2021/01/28 15:09:01;;;;;;;;;;;;;;;-144.34;100.00;60189.88;4980502;28;19925;-93
2021/01/28 15:11:27;;;;;;;;;;;;;;;-144.34;100.00;60189.88;4973566;28;19957;-94
2021/01/28 15:13:53;;;;;;;;;;;;;;;-144.34;100.00;60189.88;4979935;28;20332;-92
2021/01/28 15:16:22;;;;;;;;;;;;;;;-144.34;100.00;60189.88;4976774;28;19922;-93
2021/01/28 15:18:48;;;;;;;;;;;;;;;-144.34;100.00;60189.88;4965200;28;19926;-94
2021/01/28 15:21:13;;;;;;;;;;;;;;;-144.34;100.00;60189.88;4977759;28;20404;-93
2021/01/28 15:23:39;;;;;;;;;;;;;;;-144.34;100.00;60189.88;4960699;28;20363;-93
2021/01/28 15:26:04;;;;;;;;;;;;;;;-144.34;100.00;60189.88;4928180;28;19922;-93
2021/01/28 15:28:30;;;;;;;;;;;;;;;-144.34;100.00;60189.88;4926687;28;19925;-93
2021/01/28 15:30:55;;;;;;;;;;;;;;;-144.34;100.00;60189.88;4937109;28;20506;-93
2021/01/28 15:33:20;;;;;;;;;;;;;;;-144.34;100.00;60189.88;4950648;28;19929;-92
2021/01/28 15:35:46;;;;;;;;;;;;;;;-144.34;100.00;60189.88;4928333;28;19972;-93
2021/01/28 15:38:11;;;;;;;;;;;;;;;-144.34;100.00;60189.88;4925067;28;20406;-93
2021/01/28 15:40:37;;;;;;;;;;;;;;;-144.34;100.00;60189.88;4927039;28;19922;-92
2021/01/28 15:43:02;;;;;;;;;;;;;;;-144.34;100.00;60189.88;4926054;28;20243;-92
2021/01/28 15:45:31;;;;;;;;;;;;;;;-144.34;100.00;60189.88;4925941;28;19978;-93
2021/01/28 15:47:56;;;;;;;;;;;;;;;-144.34;100.00;60189.88;4928693;28;20049;-93
2021/01/28 15:50:22;;;;;;;;;;;;;;;-144.34;100.00;60189.88;4954600;28;19943;-92
2021/01/28 15:52:47;;;;;;;;;;;;;;;-144.34;100.00;60189.88;4928143;28;19926;-92
2021/01/28 15:55:13;;;;;;;;;;;;;;;-144.34;100.00;60189.88;4926785;28;20355;-91
2021/01/28 15:57:38;;;;;;;;;;;;;;;-144.34;100.00;60189.88;4929665;28;20225;-92